sensor_id;sensor_type;location;lat;lon;timestamp;P1;durP1;ratioP1;P2;durP2;ratioP2
48522;SDS011;34315;50.150;11.070;2022-08-07T00:01:22;2.47;;;1.25;;
48522;SDS011;34315;50.150;11.070;2022-08-07T00:06:22;1.88;;;1.10;;
48522;SDS011;34315;50.150;11.070;2022-08-07T00:11:22;1.77;;;1.30;;
48522;SDS011;34315;50.150;11.070;2022-08-07T00:16:23;2.67;;;1.38;;
48522;SDS011;34315;50.150;11.070;2022-08-07T00:21:24;2.65;;;1.27;;
48522;SDS011;34315;50.150;11.070;2022-08-07T00:26:24;2.38;;;1.30;;
48522;SDS011;34315;50.150;11.070;2022-08-07T00:31:25;2.63;;;1.10;;
48522;SDS011;34315;50.150;11.070;2022-08-07T00:36:25;2.50;;;0.90;;
48522;SDS011;34315;50.150;11.070;2022-08-07T00:41:27;1.45;;;1.00;;
48522;SDS011;34315;50.150;11.070;2022-08-07T00:46:31;2.75;;;1.10;;
48522;SDS011;34315;50.150;11.070;2022-08-07T00:51:31;2.58;;;1.20;;
48522;SDS011;34315;50.150;11.070;2022-08-07T00:56:32;4.65;;;1.20;;
48522;SDS011;34315;50.150;11.070;2022-08-07T01:01:33;3.38;;;1.02;;
48522;SDS011;34315;50.150;11.070;2022-08-07T01:06:34;3.03;;;1.00;;
48522;SDS011;34315;50.150;11.070;2022-08-07T01:11:35;3.22;;;1.20;;
48522;SDS011;34315;50.150;11.070;2022-08-07T01:16:35;2.58;;;1.25;;
48522;SDS011;34315;50.150;11.070;2022-08-07T01:21:36;3.80;;;1.60;;
48522;SDS011;34315;50.150;11.070;2022-08-07T01:26:36;2.85;;;1.58;;
48522;SDS011;34315;50.150;11.070;2022-08-07T01:31:38;2.63;;;1.35;;
48522;SDS011;34315;50.150;11.070;2022-08-07T01:36:38;1.65;;;1.10;;
48522;SDS011;34315;50.150;11.070;2022-08-07T01:41:47;5.65;;;2.15;;
48522;SDS011;34315;50.150;11.070;2022-08-07T01:46:48;3.20;;;1.10;;
48522;SDS011;34315;50.150;11.070;2022-08-07T01:51:49;2.22;;;1.00;;
48522;SDS011;34315;50.150;11.070;2022-08-07T01:56:59;2.75;;;1.10;;
48522;SDS011;34315;50.150;11.070;2022-08-07T02:02:04;3.00;;;1.13;;
48522;SDS011;34315;50.150;11.070;2022-08-07T02:07:07;2.55;;;1.20;;
48522;SDS011;34315;50.150;11.070;2022-08-07T02:12:08;3.10;;;1.40;;
48522;SDS011;34315;50.150;11.070;2022-08-07T02:17:19;3.40;;;1.50;;
48522;SDS011;34315;50.150;11.070;2022-08-07T02:22:21;3.50;;;1.67;;
48522;SDS011;34315;50.150;11.070;2022-08-07T02:27:23;2.50;;;1.67;;
48522;SDS011;34315;50.150;11.070;2022-08-07T02:32:25;2.58;;;1.30;;
48522;SDS011;34315;50.150;11.070;2022-08-07T02:37:26;1.88;;;1.20;;
48522;SDS011;34315;50.150;11.070;2022-08-07T02:42:28;4.47;;;1.30;;
48522;SDS011;34315;50.150;11.070;2022-08-07T02:47:29;1.85;;;1.08;;
48522;SDS011;34315;50.150;11.070;2022-08-07T02:52:46;1.73;;;0.90;;
48522;SDS011;34315;50.150;11.070;2022-08-07T02:57:52;1.30;;;1.00;;
48522;SDS011;34315;50.150;11.070;2022-08-07T03:02:54;1.48;;;1.10;;
48522;SDS011;34315;50.150;11.070;2022-08-07T03:07:57;3.63;;;1.15;;
48522;SDS011;34315;50.150;11.070;2022-08-07T03:12:58;2.45;;;1.20;;
48522;SDS011;34315;50.150;11.070;2022-08-07T03:17:59;1.70;;;1.30;;
48522;SDS011;34315;50.150;11.070;2022-08-07T03:23:01;1.33;;;1.13;;
48522;SDS011;34315;50.150;11.070;2022-08-07T03:28:02;1.38;;;1.05;;
48522;SDS011;34315;50.150;11.070;2022-08-07T03:33:04;1.50;;;1.17;;
48522;SDS011;34315;50.150;11.070;2022-08-07T03:38:07;2.83;;;1.00;;
48522;SDS011;34315;50.150;11.070;2022-08-07T03:43:08;1.35;;;0.90;;
48522;SDS011;34315;50.150;11.070;2022-08-07T03:48:09;2.38;;;1.05;;
48522;SDS011;34315;50.150;11.070;2022-08-07T03:53:10;2.75;;;0.93;;
48522;SDS011;34315;50.150;11.070;2022-08-07T03:58:12;3.83;;;1.13;;
48522;SDS011;34315;50.150;11.070;2022-08-07T04:03:13;1.38;;;1.10;;
48522;SDS011;34315;50.150;11.070;2022-08-07T04:08:15;1.85;;;1.10;;
48522;SDS011;34315;50.150;11.070;2022-08-07T04:13:15;2.53;;;1.02;;
48522;SDS011;34315;50.150;11.070;2022-08-07T04:18:17;2.38;;;1.00;;
48522;SDS011;34315;50.150;11.070;2022-08-07T04:23:19;0.93;;;0.90;;
48522;SDS011;34315;50.150;11.070;2022-08-07T04:28:22;1.02;;;0.98;;
48522;SDS011;34315;50.150;11.070;2022-08-07T04:33:24;1.10;;;1.00;;
48522;SDS011;34315;50.150;11.070;2022-08-07T04:38:25;1.90;;;1.10;;
48522;SDS011;34315;50.150;11.070;2022-08-07T04:43:32;1.13;;;1.02;;
48522;SDS011;34315;50.150;11.070;2022-08-07T04:53:46;2.67;;;1.38;;
48522;SDS011;34315;50.150;11.070;2022-08-07T04:58:51;1.40;;;1.10;;
48522;SDS011;34315;50.150;11.070;2022-08-07T05:14:37;1.67;;;1.10;;
48522;SDS011;34315;50.150;11.070;2022-08-07T05:19:41;2.80;;;1.40;;
48522;SDS011;34315;50.150;11.070;2022-08-07T05:24:44;3.05;;;1.15;;
48522;SDS011;34315;50.150;11.070;2022-08-07T05:29:46;3.40;;;1.35;;
48522;SDS011;34315;50.150;11.070;2022-08-07T05:34:49;1.77;;;0.90;;
48522;SDS011;34315;50.150;11.070;2022-08-07T05:39:50;1.52;;;1.27;;
48522;SDS011;34315;50.150;11.070;2022-08-07T05:44:51;3.38;;;1.20;;
48522;SDS011;34315;50.150;11.070;2022-08-07T05:49:54;2.88;;;0.93;;
48522;SDS011;34315;50.150;11.070;2022-08-07T05:54:57;2.63;;;1.45;;
48522;SDS011;34315;50.150;11.070;2022-08-07T05:59:59;2.10;;;1.38;;
48522;SDS011;34315;50.150;11.070;2022-08-07T06:05:12;1.45;;;0.75;;
48522;SDS011;34315;50.150;11.070;2022-08-07T06:10:15;1.88;;;0.90;;
48522;SDS011;34315;50.150;11.070;2022-08-07T06:15:17;1.77;;;1.10;;
48522;SDS011;34315;50.150;11.070;2022-08-07T06:20:18;0.93;;;0.70;;
48522;SDS011;34315;50.150;11.070;2022-08-07T06:25:19;1.35;;;0.77;;
48522;SDS011;34315;50.150;11.070;2022-08-07T06:30:19;1.40;;;0.80;;
48522;SDS011;34315;50.150;11.070;2022-08-07T06:35:20;3.25;;;1.08;;
48522;SDS011;34315;50.150;11.070;2022-08-07T06:40:20;1.15;;;0.80;;
48522;SDS011;34315;50.150;11.070;2022-08-07T06:45:22;1.30;;;0.85;;
48522;SDS011;34315;50.150;11.070;2022-08-07T06:50:31;0.95;;;0.80;;
48522;SDS011;34315;50.150;11.070;2022-08-07T06:55:34;1.98;;;1.00;;
48522;SDS011;34315;50.150;11.070;2022-08-07T07:00:36;1.77;;;0.90;;
48522;SDS011;34315;50.150;11.070;2022-08-07T07:05:40;0.90;;;0.85;;
48522;SDS011;34315;50.150;11.070;2022-08-07T07:10:41;1.45;;;0.90;;
48522;SDS011;34315;50.150;11.070;2022-08-07T07:15:43;1.13;;;0.70;;
48522;SDS011;34315;50.150;11.070;2022-08-07T07:25:49;1.38;;;0.88;;
48522;SDS011;34315;50.150;11.070;2022-08-07T07:31:07;1.70;;;0.80;;
48522;SDS011;34315;50.150;11.070;2022-08-07T07:36:11;1.45;;;1.00;;
48522;SDS011;34315;50.150;11.070;2022-08-07T07:41:12;3.25;;;1.13;;
48522;SDS011;34315;50.150;11.070;2022-08-07T07:46:14;1.77;;;1.00;;
48522;SDS011;34315;50.150;11.070;2022-08-07T07:51:14;1.83;;;1.00;;
48522;SDS011;34315;50.150;11.070;2022-08-07T07:56:17;1.10;;;0.93;;
48522;SDS011;34315;50.150;11.070;2022-08-07T08:01:18;1.90;;;1.08;;
48522;SDS011;34315;50.150;11.070;2022-08-07T08:06:20;1.67;;;1.00;;
48522;SDS011;34315;50.150;11.070;2022-08-07T08:11:23;1.13;;;0.93;;
48522;SDS011;34315;50.150;11.070;2022-08-07T08:16:36;2.20;;;0.90;;
48522;SDS011;34315;50.150;11.070;2022-08-07T08:21:39;3.20;;;1.55;;
48522;SDS011;34315;50.150;11.070;2022-08-07T08:26:59;1.92;;;1.00;;
48522;SDS011;34315;50.150;11.070;2022-08-07T08:32:11;1.92;;;1.10;;
48522;SDS011;34315;50.150;11.070;2022-08-07T08:37:15;1.17;;;0.90;;
48522;SDS011;34315;50.150;11.070;2022-08-07T08:42:35;2.28;;;1.33;;
48522;SDS011;34315;50.150;11.070;2022-08-07T08:47:42;1.95;;;1.10;;
48522;SDS011;34315;50.150;11.070;2022-08-07T08:58:02;3.70;;;1.50;;
48522;SDS011;34315;50.150;11.070;2022-08-07T09:03:10;1.83;;;0.98;;
48522;SDS011;34315;50.150;11.070;2022-08-07T09:13:59;14.88;;;1.33;;
48522;SDS011;34315;50.150;11.070;2022-08-07T09:29:32;3.05;;;1.75;;
48522;SDS011;34315;50.150;11.070;2022-08-07T09:34:49;2.65;;;1.23;;
48522;SDS011;34315;50.150;11.070;2022-08-07T09:39:58;4.03;;;1.58;;
48522;SDS011;34315;50.150;11.070;2022-08-07T09:50:23;2.15;;;1.52;;
48522;SDS011;34315;50.150;11.070;2022-08-07T10:18:03;1.85;;;0.90;;
48522;SDS011;34315;50.150;11.070;2022-08-07T10:23:23;1.73;;;1.00;;
48522;SDS011;34315;50.150;11.070;2022-08-07T10:28:51;1.77;;;1.05;;
48522;SDS011;34315;50.150;11.070;2022-08-07T10:39:10;1.83;;;1.23;;
48522;SDS011;34315;50.150;11.070;2022-08-07T10:44:16;2.47;;;1.20;;
48522;SDS011;34315;50.150;11.070;2022-08-07T11:00:09;1.45;;;1.08;;
48522;SDS011;34315;50.150;11.070;2022-08-07T11:10:38;2.25;;;1.25;;
48522;SDS011;34315;50.150;11.070;2022-08-07T11:15:42;3.58;;;0.90;;
48522;SDS011;34315;50.150;11.070;2022-08-07T11:20:47;1.55;;;0.90;;
48522;SDS011;34315;50.150;11.070;2022-08-07T11:25:52;1.52;;;1.00;;
48522;SDS011;34315;50.150;11.070;2022-08-07T11:31:01;1.05;;;0.90;;
48522;SDS011;34315;50.150;11.070;2022-08-07T11:36:10;2.15;;;1.10;;
48522;SDS011;34315;50.150;11.070;2022-08-07T11:41:25;3.33;;;1.13;;
48522;SDS011;34315;50.150;11.070;2022-08-07T11:52:18;2.13;;;1.00;;
48522;SDS011;34315;50.150;11.070;2022-08-07T11:57:45;1.95;;;1.00;;
48522;SDS011;34315;50.150;11.070;2022-08-07T12:08:23;1.85;;;1.00;;
48522;SDS011;34315;50.150;11.070;2022-08-07T12:24:26;1.88;;;1.00;;
48522;SDS011;34315;50.150;11.070;2022-08-07T12:29:34;3.03;;;1.30;;
48522;SDS011;34315;50.150;11.070;2022-08-07T12:34:40;4.05;;;1.00;;
48522;SDS011;34315;50.150;11.070;2022-08-07T12:39:40;2.55;;;1.30;;
48522;SDS011;34315;50.150;11.070;2022-08-07T12:44:44;2.50;;;1.40;;
48522;SDS011;34315;50.150;11.070;2022-08-07T12:49:50;2.05;;;1.10;;
48522;SDS011;34315;50.150;11.070;2022-08-07T12:55:01;3.50;;;1.20;;
48522;SDS011;34315;50.150;11.070;2022-08-07T13:00:06;1.17;;;1.08;;
48522;SDS011;34315;50.150;11.070;2022-08-07T13:10:26;2.85;;;1.00;;
48522;SDS011;34315;50.150;11.070;2022-08-07T13:15:36;1.48;;;1.08;;
48522;SDS011;34315;50.150;11.070;2022-08-07T13:21:25;1.00;;;0.90;;
48522;SDS011;34315;50.150;11.070;2022-08-07T13:26:55;1.63;;;0.93;;
48522;SDS011;34315;50.150;11.070;2022-08-07T13:31:44;1.38;;;0.90;;
48522;SDS011;34315;50.150;11.070;2022-08-07T13:36:53;1.05;;;0.98;;
48522;SDS011;34315;50.150;11.070;2022-08-07T13:41:57;2.03;;;1.00;;
48522;SDS011;34315;50.150;11.070;2022-08-07T13:46:58;2.67;;;1.00;;
48522;SDS011;34315;50.150;11.070;2022-08-07T13:52:03;1.35;;;1.10;;
48522;SDS011;34315;50.150;11.070;2022-08-07T13:57:05;2.75;;;0.90;;
48522;SDS011;34315;50.150;11.070;2022-08-07T14:02:12;3.35;;;1.40;;
48522;SDS011;34315;50.150;11.070;2022-08-07T14:07:15;8.68;;;1.73;;
48522;SDS011;34315;50.150;11.070;2022-08-07T14:12:18;4.03;;;1.10;;
48522;SDS011;34315;50.150;11.070;2022-08-07T14:17:24;2.20;;;1.00;;
48522;SDS011;34315;50.150;11.070;2022-08-07T14:22:25;1.00;;;0.90;;
48522;SDS011;34315;50.150;11.070;2022-08-07T14:27:30;14.75;;;1.65;;
48522;SDS011;34315;50.150;11.070;2022-08-07T14:32:41;1.38;;;0.95;;
48522;SDS011;34315;50.150;11.070;2022-08-07T14:37:48;2.47;;;0.90;;
48522;SDS011;34315;50.150;11.070;2022-08-07T14:42:57;1.83;;;0.98;;
48522;SDS011;34315;50.150;11.070;2022-08-07T14:48:02;0.82;;;0.82;;
48522;SDS011;34315;50.150;11.070;2022-08-07T14:53:03;0.95;;;0.95;;
48522;SDS011;34315;50.150;11.070;2022-08-07T14:58:05;2.00;;;1.10;;
48522;SDS011;34315;50.150;11.070;2022-08-07T15:03:07;9.02;;;1.30;;
48522;SDS011;34315;50.150;11.070;2022-08-07T15:08:09;4.43;;;1.17;;
48522;SDS011;34315;50.150;11.070;2022-08-07T15:13:18;2.70;;;1.10;;
48522;SDS011;34315;50.150;11.070;2022-08-07T15:18:21;1.05;;;1.00;;
48522;SDS011;34315;50.150;11.070;2022-08-07T15:23:40;2.15;;;0.98;;
48522;SDS011;34315;50.150;11.070;2022-08-07T15:28:41;2.35;;;1.00;;
48522;SDS011;34315;50.150;11.070;2022-08-07T15:33:43;3.85;;;1.27;;
48522;SDS011;34315;50.150;11.070;2022-08-07T15:38:44;2.28;;;1.10;;
48522;SDS011;34315;50.150;11.070;2022-08-07T15:43:47;1.92;;;1.10;;
48522;SDS011;34315;50.150;11.070;2022-08-07T15:48:58;1.75;;;1.15;;
48522;SDS011;34315;50.150;11.070;2022-08-07T15:54:00;1.07;;;1.00;;
48522;SDS011;34315;50.150;11.070;2022-08-07T15:59:08;1.60;;;1.10;;
48522;SDS011;34315;50.150;11.070;2022-08-07T16:04:11;2.80;;;1.02;;
48522;SDS011;34315;50.150;11.070;2022-08-07T16:09:13;1.65;;;1.00;;
48522;SDS011;34315;50.150;11.070;2022-08-07T16:24:56;3.63;;;1.00;;
48522;SDS011;34315;50.150;11.070;2022-08-07T16:30:04;4.05;;;1.20;;
48522;SDS011;34315;50.150;11.070;2022-08-07T16:35:11;8.38;;;1.27;;
48522;SDS011;34315;50.150;11.070;2022-08-07T16:56:47;3.97;;;1.17;;
48522;SDS011;34315;50.150;11.070;2022-08-07T17:02:05;3.20;;;1.00;;
48522;SDS011;34315;50.150;11.070;2022-08-07T17:07:45;1.58;;;0.95;;
48522;SDS011;34315;50.150;11.070;2022-08-07T17:18:06;2.15;;;0.90;;
48522;SDS011;34315;50.150;11.070;2022-08-07T17:28:36;8.85;;;1.52;;
48522;SDS011;34315;50.150;11.070;2022-08-07T17:34:02;2.53;;;0.90;;
48522;SDS011;34315;50.150;11.070;2022-08-07T17:39:33;2.97;;;1.05;;
48522;SDS011;34315;50.150;11.070;2022-08-07T17:44:48;2.38;;;1.10;;
48522;SDS011;34315;50.150;11.070;2022-08-07T17:49:58;3.08;;;1.00;;
48522;SDS011;34315;50.150;11.070;2022-08-07T18:00:05;1.85;;;0.90;;
48522;SDS011;34315;50.150;11.070;2022-08-07T18:05:13;2.72;;;1.20;;
48522;SDS011;34315;50.150;11.070;2022-08-07T18:10:35;1.98;;;0.90;;
48522;SDS011;34315;50.150;11.070;2022-08-07T18:21:06;1.43;;;1.00;;
48522;SDS011;34315;50.150;11.070;2022-08-07T18:26:11;4.10;;;1.10;;
48522;SDS011;34315;50.150;11.070;2022-08-07T18:36:40;5.00;;;1.10;;
48522;SDS011;34315;50.150;11.070;2022-08-07T18:42:02;1.48;;;1.00;;
48522;SDS011;34315;50.150;11.070;2022-08-07T18:47:25;2.65;;;1.27;;
48522;SDS011;34315;50.150;11.070;2022-08-07T19:02:58;3.25;;;1.30;;
48522;SDS011;34315;50.150;11.070;2022-08-07T19:08:10;1.10;;;0.90;;
48522;SDS011;34315;50.150;11.070;2022-08-07T19:23:44;2.50;;;1.13;;
48522;SDS011;34315;50.150;11.070;2022-08-07T19:28:54;5.60;;;2.95;;
48522;SDS011;34315;50.150;11.070;2022-08-07T19:33:56;6.25;;;2.90;;
48522;SDS011;34315;50.150;11.070;2022-08-07T19:38:59;6.20;;;3.50;;
48522;SDS011;34315;50.150;11.070;2022-08-07T19:44:00;3.40;;;2.10;;
48522;SDS011;34315;50.150;11.070;2022-08-07T19:49:03;2.47;;;1.13;;
48522;SDS011;34315;50.150;11.070;2022-08-07T19:54:05;3.78;;;1.38;;
48522;SDS011;34315;50.150;11.070;2022-08-07T20:04:35;26.90;;;16.67;;
48522;SDS011;34315;50.150;11.070;2022-08-07T20:09:41;60.92;;;38.92;;
48522;SDS011;34315;50.150;11.070;2022-08-07T20:14:44;30.10;;;21.33;;
48522;SDS011;34315;50.150;11.070;2022-08-07T20:24:50;5.93;;;3.67;;
48522;SDS011;34315;50.150;11.070;2022-08-07T20:29:54;19.48;;;11.05;;
48522;SDS011;34315;50.150;11.070;2022-08-07T20:34:56;35.25;;;22.95;;
48522;SDS011;34315;50.150;11.070;2022-08-07T20:39:59;37.35;;;23.27;;
48522;SDS011;34315;50.150;11.070;2022-08-07T20:45:00;32.40;;;20.17;;
48522;SDS011;34315;50.150;11.070;2022-08-07T20:50:03;9.50;;;4.53;;
48522;SDS011;34315;50.150;11.070;2022-08-07T20:55:05;3.92;;;1.85;;
48522;SDS011;34315;50.150;11.070;2022-08-07T21:00:06;1.98;;;1.30;;
48522;SDS011;34315;50.150;11.070;2022-08-07T21:05:08;2.42;;;1.17;;
48522;SDS011;34315;50.150;11.070;2022-08-07T21:10:12;2.05;;;1.13;;
48522;SDS011;34315;50.150;11.070;2022-08-07T21:15:17;2.42;;;1.15;;
48522;SDS011;34315;50.150;11.070;2022-08-07T21:20:18;2.83;;;1.27;;
48522;SDS011;34315;50.150;11.070;2022-08-07T21:25:31;1.58;;;1.10;;
48522;SDS011;34315;50.150;11.070;2022-08-07T21:41:53;5.38;;;1.75;;
48522;SDS011;34315;50.150;11.070;2022-08-07T21:47:03;5.13;;;1.70;;
48522;SDS011;34315;50.150;11.070;2022-08-07T21:52:08;3.17;;;1.33;;
48522;SDS011;34315;50.150;11.070;2022-08-07T22:02:33;3.40;;;1.10;;
48522;SDS011;34315;50.150;11.070;2022-08-07T22:07:39;3.38;;;1.50;;
48522;SDS011;34315;50.150;11.070;2022-08-07T22:12:43;6.88;;;1.80;;
48522;SDS011;34315;50.150;11.070;2022-08-07T22:17:50;2.85;;;1.42;;
48522;SDS011;34315;50.150;11.070;2022-08-07T22:23:00;4.78;;;1.60;;
48522;SDS011;34315;50.150;11.070;2022-08-07T22:28:11;2.10;;;1.20;;
48522;SDS011;34315;50.150;11.070;2022-08-07T22:33:13;2.83;;;1.15;;
48522;SDS011;34315;50.150;11.070;2022-08-07T22:38:19;2.97;;;1.13;;
48522;SDS011;34315;50.150;11.070;2022-08-07T22:43:33;3.55;;;1.10;;
48522;SDS011;34315;50.150;11.070;2022-08-07T22:53:56;6.18;;;1.60;;
48522;SDS011;34315;50.150;11.070;2022-08-07T22:59:29;5.20;;;1.35;;
48522;SDS011;34315;50.150;11.070;2022-08-07T23:04:45;2.85;;;1.52;;
48522;SDS011;34315;50.150;11.070;2022-08-07T23:15:38;3.08;;;1.40;;
48522;SDS011;34315;50.150;11.070;2022-08-07T23:25:58;2.70;;;1.20;;
48522;SDS011;34315;50.150;11.070;2022-08-07T23:31:11;2.00;;;1.27;;
48522;SDS011;34315;50.150;11.070;2022-08-07T23:52:26;1.58;;;1.05;;
48522;SDS011;34315;50.150;11.070;2022-08-07T23:57:40;1.58;;;1.17;;
